Aviation Digital Data Service (ADDS)

Output produced by METARs form (2233 UTC 30 March 2017)
found at http://www.aviationweather.gov/adds/metars/
 
TKPK 301745Z 3018/3118 05012KT P6SM VCSH SCT018 SCT040 
     FM302300 04010KT P6SM VCSH SCT018 SCT020 
     FM311300 07013KT P6SM SCT022 SCT060
       
TAF TKPN 301705Z 3018/3118 05012KT 9999 SCT020 
     PROB30 
     TEMPO 3023/3118 SHRA BKN014